Time;durP1;ratioP1;P1;durP2;ratioP2;P2;SDS_P1;SDS_P2;PMS_P1;PMS_P2;Temp;Humidity;BMP_temperature;BMP_pressure;BME280_temperature;BME280_humidity;BME280_pressure;Samples;Min_cycle;Max_cycle;Signal;HPM_P1;HPM_P2
2023/05/21 00:01:07;;;;;;;4.38;2.10;;;14.00;99.90;;;;;;5076866;28;20113;-63
2023/05/21 00:03:34;;;;;;;3.17;1.60;;;14.00;99.90;;;;;;5058653;28;20048;-63
2023/05/21 00:06:02;;;;;;;3.40;1.50;;;13.90;99.90;;;;;;5076146;28;20050;-63
2023/05/21 00:08:28;;;;;;;3.05;1.77;;;13.90;99.90;;;;;;5076085;28;20067;-63
2023/05/21 00:10:53;;;;;;;2.85;1.60;;;14.70;99.90;;;;;;5076206;28;20055;-63
2023/05/21 00:13:19;;;;;;;2.63;1.70;;;13.90;99.90;;;;;;5076229;28;20048;-63
2023/05/21 00:15:45;;;;;;;3.53;1.60;;;13.90;99.90;;;;;;5075978;28;20068;-63
2023/05/21 00:18:10;;;;;;;3.70;2.03;;;13.90;99.90;;;;;;5057986;28;20032;-64
2023/05/21 00:20:36;;;;;;;7.38;1.98;;;13.90;99.90;;;;;;5075944;28;20036;-64
2023/05/21 00:23:02;;;;;;;1.75;1.40;;;13.90;99.90;;;;;;5057959;28;20044;-64
2023/05/21 00:25:28;;;;;;;3.85;1.67;;;13.90;99.90;;;;;;5076077;28;20044;-64
2023/05/21 00:27:54;;;;;;;2.40;1.75;;;13.90;99.90;;;;;;5076080;28;20042;-63
2023/05/21 00:30:20;;;;;;;2.92;1.50;;;13.90;99.90;;;;;;5076054;28;20040;-64
2023/05/21 00:32:46;;;;;;;3.08;2.00;;;13.80;99.90;;;;;;5075561;28;20105;-64
2023/05/21 00:35:12;;;;;;;3.05;1.70;;;14.90;99.90;;;;;;5075907;28;20044;-64
2023/05/21 00:37:37;;;;;;;4.35;1.75;;;13.80;99.90;;;;;;5057609;28;20470;-64
2023/05/21 00:40:05;;;;;;;2.47;1.90;;;14.20;1.00;;;;;;5057548;28;20041;-64
2023/05/21 00:42:32;;;;;;;3.10;1.60;;;13.90;99.90;;;;;;5075713;28;20028;-64
2023/05/21 00:44:58;;;;;;;3.25;1.70;;;13.80;99.90;;;;;;5075805;28;20028;-64
2023/05/21 00:47:25;;;;;;;4.60;1.70;;;13.80;99.90;;;;;;5075395;28;20098;-64
2023/05/21 00:49:52;;;;;;;3.15;1.98;;;13.80;99.90;;;;;;5075431;28;20484;-64
2023/05/21 00:52:19;;;;;;;3.55;2.00;;;13.80;99.90;;;;;;5074412;28;20036;-64
2023/05/21 00:54:47;;;;;;;2.53;1.80;;;13.80;99.90;;;;;;5075562;28;20087;-64
2023/05/21 00:57:13;;;;;;;3.38;1.73;;;13.80;99.90;;;;;;5073998;28;20435;-64
2023/05/21 00:59:39;;;;;;;2.40;1.75;;;13.80;99.90;;;;;;5075567;28;20037;-64
2023/05/21 01:02:05;;;;;;;3.13;1.90;;;13.80;99.90;;;;;;5075474;28;20044;-64
2023/05/21 01:04:31;;;;;;;2.35;1.73;;;13.80;99.90;;;;;;5074277;28;20043;-64
2023/05/21 01:06:57;;;;;;;3.00;1.75;;;13.80;99.90;;;;;;5075112;28;20480;-64
2023/05/21 01:09:25;;;;;;;2.47;1.65;;;13.80;99.90;;;;;;5075003;28;20121;-64
2023/05/21 01:11:51;;;;;;;2.58;2.05;;;13.80;99.90;;;;;;5074879;28;20099;-64
2023/05/21 01:14:18;;;;;;;2.55;1.50;;;13.80;99.90;;;;;;5075115;28;20114;-64
2023/05/21 01:16:46;;;;;;;3.20;1.77;;;13.80;99.90;;;;;;5075164;28;20052;-64
2023/05/21 01:19:17;;;;;;;3.25;2.10;;;13.80;99.90;;;;;;5074885;28;20048;-64
2023/05/21 01:21:56;;;;;;;;;;;13.80;1.00;;;;;;5057342;28;20040;-64
2023/05/21 01:24:21;;;;;;;2.60;1.58;;;13.80;90.20;;;;;;5075082;28;20007;-64
2023/05/21 01:26:48;;;;;;;2.65;1.58;;;14.10;1.00;;;;;;5075058;28;20071;-64
2023/05/21 01:29:14;;;;;;;3.05;1.80;;;13.70;1.00;;;;;;5057047;28;20496;-64
2023/05/21 01:32:02;;;;;;;3.10;1.70;;;13.60;1.00;;;;;;5056981;28;20120;-64
2023/05/21 01:34:37;;;;;;;3.47;1.92;;;13.60;1.00;;;;;;5074685;28;20036;-64
2023/05/21 01:37:10;;;;;;;2.30;1.67;;;13.50;1.00;;;;;;5074771;28;20093;-64
2023/05/21 01:39:42;;;;;;;6.63;2.08;;;13.50;24.60;;;;;;5056826;28;20068;-64
2023/05/21 01:42:09;;;;;;;4.13;2.60;;;13.50;1.00;;;;;;5074417;28;20083;-64
2023/05/21 01:44:35;;;;;;;3.00;1.85;;;13.40;1.00;;;;;;5074638;28;20086;-67
2023/05/21 01:47:03;;;;;;;3.00;2.15;;;13.70;1.00;;;;;;5074286;28;20381;-64
2023/05/21 01:49:29;;;;;;;4.32;1.77;;;13.50;1.00;;;;;;5074557;28;20040;-64
2023/05/21 01:51:55;;;;;;;3.75;2.17;;;13.50;99.90;;;;;;5074513;28;20032;-64
2023/05/21 01:54:22;;;;;;;2.53;1.80;;;13.50;89.30;;;;;;5056096;28;20437;-64
2023/05/21 01:56:49;;;;;;;5.35;2.20;;;13.50;6.90;;;;;;5074394;28;20040;-64
2023/05/21 01:59:16;;;;;;;3.33;1.92;;;13.50;99.90;;;;;;5074136;28;20501;-64
2023/05/21 02:01:41;;;;;;;3.05;1.88;;;13.50;1.00;;;;;;5073979;28;20043;-64
2023/05/21 02:04:07;;;;;;;4.75;2.10;;;13.50;1.00;;;;;;5074022;28;20040;-63
2023/05/21 02:06:34;;;;;;;7.97;2.60;;;13.50;67.40;;;;;;5073905;28;20063;-64
2023/05/21 02:09:01;;;;;;;3.88;2.08;;;13.40;63.60;;;;;;5074126;28;20036;-64
2023/05/21 02:11:26;;;;;;;4.00;1.95;;;13.50;99.90;;;;;;5073894;28;20063;-64
2023/05/21 02:13:53;;;;;;;4.07;2.08;;;13.50;57.70;;;;;;5073993;28;20115;-64
2023/05/21 02:16:21;;;;;;;3.33;2.03;;;13.50;99.90;;;;;;5056299;28;20120;-64
2023/05/21 02:18:50;;;;;;;3.90;2.00;;;13.50;99.90;;;;;;5074045;28;20039;-64
2023/05/21 02:21:15;;;;;;;3.17;1.83;;;13.50;20.20;;;;;;5073936;28;20111;-64
2023/05/21 02:23:41;;;;;;;4.60;2.28;;;13.40;72.30;;;;;;5072618;28;20110;-63
2023/05/21 02:26:07;;;;;;;4.68;2.08;;;13.90;16.20;;;;;;5073764;28;20094;-64
2023/05/21 02:28:33;;;;;;;3.60;1.90;;;13.50;5.60;;;;;;5055947;28;20498;-64
2023/05/21 02:30:59;;;;;;;5.47;2.25;;;13.50;13.20;;;;;;5073722;28;20045;-64
2023/05/21 02:33:25;;;;;;;4.10;1.75;;;13.70;66.50;;;;;;5073579;28;20045;-64
2023/05/21 02:35:51;;;;;;;4.53;2.15;;;13.40;99.90;;;;;;5055438;28;20404;-63
2023/05/21 02:38:18;;;;;;;4.97;2.50;;;13.50;69.70;;;;;;5055285;28;20032;-64
2023/05/21 02:40:45;;;;;;;3.15;1.98;;;13.40;45.20;;;;;;5073570;28;20067;-63
2023/05/21 02:43:10;;;;;;;4.65;2.33;;;13.40;10.40;;;;;;5073516;28;20033;-64
2023/05/21 02:45:36;;;;;;;3.30;2.13;;;13.40;93.60;;;;;;5073466;28;20594;-63
2023/05/21 02:48:01;;;;;;;3.28;2.20;;;13.80;99.90;;;;;;5073111;28;20502;-64
2023/05/21 02:50:27;;;;;;;5.93;2.35;;;13.40;22.80;;;;;;5073356;28;20123;-64
2023/05/21 02:52:53;;;;;;;3.85;2.28;;;13.60;99.90;;;;;;5073275;28;20503;-64
2023/05/21 02:55:18;;;;;;;3.50;2.25;;;13.40;99.90;;;;;;5072926;28;20044;-64
2023/05/21 02:57:44;;;;;;;3.38;2.00;;;13.40;99.90;;;;;;5073248;28;20036;-64
2023/05/21 03:00:10;;;;;;;4.07;1.80;;;13.40;99.90;;;;;;5072882;28;20503;-63
2023/05/21 03:02:36;;;;;;;4.50;2.10;;;13.40;99.90;;;;;;5073184;28;20032;-63
2023/05/21 03:05:01;;;;;;;6.20;2.30;;;13.40;99.90;;;;;;5072955;28;20549;-63
2023/05/21 03:07:27;;;;;;;4.22;2.17;;;13.40;99.90;;;;;;5073139;28;20044;-64
2023/05/21 03:09:53;;;;;;;3.60;2.00;;;13.50;99.90;;;;;;5073163;28;20028;-63
2023/05/21 03:12:18;;;;;;;4.90;1.90;;;13.30;99.90;;;;;;5072693;28;20106;-63
2023/05/21 03:14:45;;;;;;;4.43;2.17;;;13.40;94.50;;;;;;5072796;28;20044;-64
2023/05/21 03:17:12;;;;;;;3.78;2.35;;;13.40;99.90;;;;;;5054486;28;20045;-64
2023/05/21 03:19:41;;;;;;;3.72;2.00;;;13.40;99.90;;;;;;5073059;28;20040;-63
2023/05/21 03:22:08;;;;;;;3.63;2.03;;;13.40;92.00;;;;;;5072962;28;20058;-63
2023/05/21 03:24:34;;;;;;;4.78;2.90;;;14.10;99.90;;;;;;5072690;28;20044;-63
2023/05/21 03:27:05;;;;;;;3.58;2.33;;;13.50;99.90;;;;;;5054676;28;20048;-63
2023/05/21 03:29:30;;;;;;;3.15;1.90;;;13.40;99.90;;;;;;5072726;28;20483;-64
2023/05/21 03:31:56;;;;;;;4.63;2.08;;;13.50;89.30;;;;;;5072794;28;20036;-63
2023/05/21 03:34:22;;;;;;;5.88;2.63;;;13.50;99.90;;;;;;5072528;28;20098;-64
2023/05/21 03:36:49;;;;;;;4.43;2.03;;;13.40;99.90;;;;;;5072608;28;20374;-65
2023/05/21 03:39:14;;;;;;;3.20;2.03;;;13.40;99.90;;;;;;5072702;28;20029;-64
2023/05/21 03:41:40;;;;;;;5.68;2.15;;;13.40;99.90;;;;;;5072807;28;20039;-64
2023/05/21 03:44:06;;;;;;;5.20;2.03;;;13.40;99.90;;;;;;5072488;28;20052;-64
2023/05/21 03:46:32;;;;;;;4.53;2.10;;;13.40;99.90;;;;;;5072791;28;20043;-64
2023/05/21 03:48:57;;;;;;;5.25;2.17;;;13.70;1.00;;;;;;5072443;28;20116;-64
2023/05/21 03:51:23;;;;;;;3.85;1.98;;;13.40;99.90;;;;;;5072707;28;20044;-64
2023/05/21 03:53:50;;;;;;;3.83;2.13;;;13.40;99.90;;;;;;5072531;28;20091;-63
2023/05/21 03:56:16;;;;;;;5.20;2.50;;;13.40;1.00;;;;;;5072379;28;20408;-64
2023/05/21 03:58:42;;;;;;;5.15;1.92;;;13.40;1.00;;;;;;5054402;28;20036;-64
2023/05/21 04:01:07;;;;;;;6.05;2.35;;;13.40;99.90;;;;;;5054224;28;20037;-64
2023/05/21 04:03:34;;;;;;;3.20;1.70;;;13.40;99.90;;;;;;5072276;28;20040;-66
2023/05/21 04:06:01;;;;;;;3.05;1.85;;;13.40;1.00;;;;;;5072221;28;20037;-64
2023/05/21 04:08:26;;;;;;;4.85;2.22;;;13.30;99.90;;;;;;5072493;28;20068;-64
2023/05/21 04:10:52;;;;;;;4.53;2.45;;;13.30;1.00;;;;;;5072306;28;20095;-64
2023/05/21 04:13:17;;;;;;;3.47;2.10;;;13.30;99.90;;;;;;5072292;28;20530;-64
2023/05/21 04:15:45;;;;;;;4.07;1.77;;;13.30;1.00;;;;;;5072176;28;20092;-64
2023/05/21 04:18:19;;;;;;;5.97;2.22;;;13.30;99.90;;;;;;5072216;28;20040;-63
2023/05/21 04:20:45;;;;;;;4.25;2.05;;;13.30;99.90;;;;;;5072361;28;20044;-63
2023/05/21 04:23:10;;;;;;;5.07;2.05;;;13.30;96.00;;;;;;5072378;28;20043;-63
2023/05/21 04:25:37;;;;;;;4.35;2.15;;;13.30;99.90;;;;;;5072388;28;20472;-63
2023/05/21 04:28:03;;;;;;;6.82;2.25;;;13.40;99.90;;;;;;5075330;28;20059;-64
2023/05/21 04:30:29;;;;;;;3.03;1.95;;;13.30;1.00;;;;;;5075721;28;20040;-64
2023/05/21 04:32:54;;;;;;;4.47;1.70;;;13.60;90.10;;;;;;5075921;28;20036;-63
2023/05/21 04:35:20;;;;;;;5.32;1.95;;;13.40;4.60;;;;;;5075951;28;20033;-64
2023/05/21 04:37:45;;;;;;;3.05;1.98;;;13.40;1.00;;;;;;5075957;28;20032;-64
2023/05/21 04:40:17;;;;;;;4.30;2.10;;;13.40;97.80;;;;;;5075865;28;20029;-64
2023/05/21 04:42:45;;;;;;;3.33;1.92;;;13.40;1.00;;;;;;5057893;28;20128;-63
2023/05/21 04:45:11;;;;;;;6.25;1.75;;;13.40;99.90;;;;;;5075689;28;20043;-64
2023/05/21 04:47:37;;;;;;;6.75;2.30;;;13.30;99.90;;;;;;5075692;28;20115;-64
2023/05/21 04:50:03;;;;;;;4.47;2.17;;;13.40;99.90;;;;;;5075662;28;20072;-63
2023/05/21 04:52:29;;;;;;;3.40;2.00;;;13.40;99.90;;;;;;5075223;28;20487;-66
2023/05/21 04:54:56;;;;;;;5.03;2.50;;;13.40;3.70;;;;;;5075623;28;20112;-63
2023/05/21 04:57:23;;;;;;;5.03;1.95;;;13.40;28.60;;;;;;5075206;28;20044;-63
2023/05/21 04:59:49;;;;;;;4.15;1.88;;;13.40;99.90;;;;;;5075270;28;20087;-63
2023/05/21 05:02:14;;;;;;;4.05;2.03;;;13.40;2.20;;;;;;5075509;28;20064;-63
2023/05/21 05:04:40;;;;;;;3.00;1.80;;;13.90;1.00;;;;;;5057502;28;20032;-64
2023/05/21 05:07:06;;;;;;;3.60;2.17;;;13.40;99.90;;;;;;5075084;28;20131;-64
2023/05/21 05:09:31;;;;;;;3.38;1.90;;;13.50;99.90;;;;;;5075335;28;20044;-64
2023/05/21 05:11:57;;;;;;;5.28;1.88;;;13.50;1.00;;;;;;5074918;28;20058;-64
2023/05/21 05:14:22;;;;;;;8.50;2.15;;;14.00;75.10;;;;;;5075126;28;20353;-64
2023/05/21 05:16:48;;;;;;;3.22;1.90;;;13.50;99.90;;;;;;5056990;28;20044;-64
2023/05/21 05:19:14;;;;;;;3.42;2.10;;;13.60;1.00;;;;;;5075160;28;20068;-64
2023/05/21 05:21:39;;;;;;;3.35;1.90;;;13.60;1.00;;;;;;5056803;28;20040;-63
2023/05/21 05:24:05;;;;;;;3.90;1.90;;;14.20;99.90;;;;;;5057119;28;20052;-64
2023/05/21 05:26:31;;;;;;;4.13;1.83;;;13.70;99.90;;;;;;5075151;28;20040;-64
2023/05/21 05:28:56;;;;;;;6.50;1.83;;;13.70;99.90;;;;;;5074959;28;20484;-64
2023/05/21 05:31:22;;;;;;;5.97;2.50;;;13.70;99.90;;;;;;5074848;28;20040;-64
2023/05/21 05:33:48;;;;;;;7.03;2.17;;;13.80;99.90;;;;;;5074440;28;20136;-64
2023/05/21 05:36:13;;;;;;;2.40;1.90;;;14.10;99.90;;;;;;5056554;28;20040;-64
2023/05/21 05:38:39;;;;;;;2.83;1.65;;;13.80;99.90;;;;;;5074243;28;20029;-65
2023/05/21 05:41:05;;;;;;;3.45;1.63;;;13.80;99.90;;;;;;5074481;28;20139;-63
2023/05/21 05:43:30;;;;;;;4.88;1.90;;;13.80;99.90;;;;;;5074714;28;20040;-64
2023/05/21 05:45:56;;;;;;;4.38;2.13;;;13.80;99.90;;;;;;5056716;28;20199;-63
2023/05/21 05:48:22;;;;;;;3.40;1.90;;;13.90;99.90;;;;;;5074513;28;20119;-63
2023/05/21 05:50:47;;;;;;;3.00;1.75;;;14.00;23.20;;;;;;5074261;28;20093;-63
2023/05/21 05:53:13;;;;;;;5.32;1.98;;;13.90;46.80;;;;;;5074328;28;20045;-63
2023/05/21 05:55:40;;;;;;;2.92;1.45;;;13.90;35.70;;;;;;5056247;28;20051;-63
2023/05/21 05:58:06;;;;;;;4.72;1.92;;;14.00;1.00;;;;;;5074366;28;20370;-63
2023/05/21 06:00:31;;;;;;;2.50;1.50;;;13.90;1.00;;;;;;5074215;28;20040;-63
2023/05/21 06:02:57;;;;;;;5.35;1.60;;;14.00;1.00;;;;;;5056266;28;20045;-63
2023/05/21 06:05:22;;;;;;;4.63;2.22;;;14.00;1.00;;;;;;5074018;28;20480;-63
2023/05/21 06:07:48;;;;;;;3.10;1.70;;;14.00;1.00;;;;;;5074097;28;20040;-63
2023/05/21 06:10:14;;;;;;;2.97;2.00;;;14.00;1.00;;;;;;5055831;28;20071;-64
2023/05/21 06:12:39;;;;;;;7.20;1.80;;;14.00;1.00;;;;;;5072305;28;20056;-63
2023/05/21 06:15:06;;;;;;;2.35;1.55;;;14.10;1.00;;;;;;5073987;28;20052;-63
2023/05/21 06:17:31;;;;;;;3.20;1.70;;;14.10;99.90;;;;;;5074449;28;20075;-66
2023/05/21 06:19:57;;;;;;;3.15;1.92;;;14.10;99.90;;;;;;5073627;28;20072;-71
2023/05/21 06:22:22;;;;;;;5.35;1.48;;;14.10;99.90;;;;;;5073602;28;20051;-64
2023/05/21 06:24:48;;;;;;;3.70;1.77;;;14.10;99.90;;;;;;5073496;28;20044;-67
2023/05/21 06:27:13;;;;;;;3.70;1.55;;;12.20;99.90;;;;;;5073781;28;20054;-65
2023/05/21 06:29:39;;;;;;;4.90;1.52;;;14.10;99.90;;;;;;5038937;28;20044;-66
2023/05/21 06:32:07;;;;;;;3.55;1.90;;;14.20;99.90;;;;;;5073682;28;20134;-66
2023/05/21 06:34:32;;;;;;;7.03;1.70;;;14.20;99.90;;;;;;5073575;28;20036;-65
2023/05/21 06:36:58;;;;;;;2.65;1.55;;;14.30;99.90;;;;;;5073546;28;20536;-65
2023/05/21 06:39:23;;;;;;;5.18;1.98;;;14.30;99.90;;;;;;5055451;28;20049;-66
2023/05/21 06:41:49;;;;;;;6.25;1.55;;;14.40;99.90;;;;;;5073350;28;20036;-66
2023/05/21 06:44:15;;;;;;;5.68;2.17;;;14.40;99.90;;;;;;5073420;28;20499;-66
2023/05/21 06:46:41;;;;;;;3.90;1.88;;;14.10;99.90;;;;;;5055237;28;20045;-68
2023/05/21 06:49:07;;;;;;;7.28;3.58;;;14.50;99.90;;;;;;5073215;28;20080;-66
2023/05/21 06:51:32;;;;;;;9.13;5.57;;;14.30;99.90;;;;;;5072193;28;20102;-68
2023/05/21 06:53:58;;;;;;;11.82;7.10;;;15.20;99.90;;;;;;5073240;28;20036;-67
2023/05/21 06:56:24;;;;;;;19.02;9.35;;;14.60;99.90;;;;;;5073197;28;20553;-65
2023/05/21 06:58:49;;;;;;;16.95;9.13;;;14.70;99.90;;;;;;5072971;28;20503;-67
2023/05/21 07:01:15;;;;;;;15.65;8.63;;;14.70;99.90;;;;;;5073171;28;20540;-67
2023/05/21 07:03:41;;;;;;;13.57;7.30;;;14.50;99.90;;;;;;5072860;28;20045;-67
2023/05/21 07:06:06;;;;;;;13.88;6.88;;;14.80;99.90;;;;;;5055188;28;20075;-67
2023/05/21 07:08:32;;;;;;;12.32;5.75;;;14.90;99.90;;;;;;5072968;28;20070;-70
2023/05/21 07:10:58;;;;;;;14.05;6.43;;;14.90;99.90;;;;;;5072621;28;20051;-68
2023/05/21 07:13:23;;;;;;;8.57;5.82;;;15.10;99.90;;;;;;5072906;28;20055;-67
2023/05/21 07:15:49;;;;;;;12.48;5.53;;;15.00;99.90;;;;;;5073035;28;20041;-68
2023/05/21 07:18:15;;;;;;;6.72;4.43;;;15.10;99.90;;;;;;5073017;28;20519;-66
2023/05/21 07:20:41;;;;;;;7.15;3.05;;;15.10;99.90;;;;;;5072669;28;20040;-66
2023/05/21 07:23:06;;;;;;;4.55;2.40;;;15.10;99.90;;;;;;5072967;28;20178;-66
2023/05/21 07:25:32;;;;;;;3.70;2.22;;;15.20;99.90;;;;;;5072966;28;20047;-68
2023/05/21 07:27:58;;;;;;;3.20;2.03;;;15.30;99.90;;;;;;5072888;28;20089;-70
2023/05/21 07:30:23;;;;;;;6.93;1.75;;;15.30;99.90;;;;;;5054589;28;20046;-67
2023/05/21 07:32:49;;;;;;;3.13;1.60;;;15.40;99.90;;;;;;5072617;28;20484;-66
2023/05/21 07:35:15;;;;;;;3.85;1.70;;;15.90;99.90;;;;;;5054556;28;20040;-66
2023/05/21 07:37:40;;;;;;;3.90;1.95;;;15.60;99.90;;;;;;5072858;28;20101;-66
2023/05/21 07:40:06;;;;;;;2.83;1.60;;;15.90;99.90;;;;;;5072675;28;20047;-66
2023/05/21 07:42:32;;;;;;;4.55;1.77;;;15.60;99.90;;;;;;5072695;28;20028;-70
2023/05/21 07:44:58;;;;;;;3.70;1.70;;;15.70;99.90;;;;;;5072270;28;20407;-67
2023/05/21 07:47:24;;;;;;;3.90;1.70;;;15.70;99.90;;;;;;5072248;28;20496;-67
2023/05/21 07:49:49;;;;;;;3.83;1.80;;;15.70;99.90;;;;;;5072754;28;20400;-71
2023/05/21 07:52:15;;;;;;;2.95;1.60;;;15.70;99.90;;;;;;5054498;28;20050;-67
2023/05/21 07:54:40;;;;;;;4.32;1.90;;;15.80;99.90;;;;;;5072399;28;20037;-67
2023/05/21 07:57:06;;;;;;;5.13;2.00;;;15.80;99.90;;;;;;5072501;28;20506;-67
2023/05/21 07:59:32;;;;;;;4.80;1.55;;;15.90;99.90;;;;;;5072224;28;20431;-67
2023/05/21 08:01:58;;;;;;;3.25;1.50;;;15.80;99.90;;;;;;5073919;28;20070;-67
2023/05/21 08:04:23;;;;;;;4.68;1.55;;;16.00;99.90;;;;;;5076792;28;20037;-67
2023/05/21 08:06:49;;;;;;;2.55;1.45;;;16.00;99.90;;;;;;5076154;28;20116;-66
2023/05/21 08:09:15;;;;;;;4.82;1.90;;;16.10;99.90;;;;;;5076351;28;20040;-67
2023/05/21 08:11:41;;;;;;;2.60;1.30;;;16.20;99.90;;;;;;5076267;28;20067;-67
2023/05/21 08:14:06;;;;;;;3.30;1.88;;;16.60;99.90;;;;;;5076296;28;20056;-70
2023/05/21 08:16:32;;;;;;;6.13;1.75;;;16.60;1.00;;;;;;5058132;28;20068;-69
2023/05/21 08:18:57;;;;;;;5.43;1.50;;;17.00;1.00;;;;;;5076035;28;20071;-68
2023/05/21 08:21:23;;;;;;;3.38;1.60;;;17.00;99.90;;;;;;5075891;28;20464;-69
2023/05/21 08:23:51;;;;;;;5.35;2.10;;;17.30;99.90;;;;;;5041343;28;20036;-68
2023/05/21 08:26:17;;;;;;;4.53;1.88;;;16.70;99.90;;;;;;5075971;28;20346;-67
2023/05/21 08:28:42;;;;;;;4.28;1.60;;;16.70;99.90;;;;;;5076089;28;20040;-68
2023/05/21 08:31:08;;;;;;;3.00;1.75;;;16.80;99.90;;;;;;5075580;28;20492;-67
2023/05/21 08:33:37;;;;;;;5.60;2.13;;;16.90;99.90;;;;;;5075819;28;20090;-65
2023/05/21 08:36:04;;;;;;;4.60;2.03;;;17.00;99.90;;;;;;5075786;28;20135;-68
2023/05/21 08:38:30;;;;;;;2.50;1.80;;;16.60;99.90;;;;;;5075460;28;20055;-68
2023/05/21 08:40:56;;;;;;;4.00;2.50;;;16.70;99.90;;;;;;5075857;28;20472;-67
2023/05/21 08:43:25;;;;;;;4.85;2.17;;;17.00;99.90;;;;;;5075530;28;20036;-66
2023/05/21 08:45:59;;;;;;;3.92;1.95;;;16.80;99.90;;;;;;5075409;28;20036;-65
2023/05/21 08:48:25;;;;;;;5.05;2.65;;;;;;;;;;5075725;28;20036;-66
2023/05/21 08:50:52;;;;;;;8.20;2.15;;;17.00;99.90;;;;;;5075699;28;20041;-67
2023/05/21 08:53:18;;;;;;;4.53;1.90;;;17.00;99.90;;;;;;5075072;28;20075;-68
2023/05/21 08:55:43;;;;;;;4.95;2.17;;;17.00;99.90;;;;;;5075560;28;20044;-67
2023/05/21 08:58:09;;;;;;;3.17;1.83;;;16.60;99.90;;;;;;5075235;28;20048;-66
2023/05/21 09:00:36;;;;;;;4.50;2.00;;;17.30;99.90;;;;;;5075144;28;20040;-66
2023/05/21 09:03:06;;;;;;;4.88;1.90;;;17.40;99.90;;;;;;5057383;28;20041;-67
2023/05/21 09:05:33;;;;;;;3.08;1.90;;;17.10;99.90;;;;;;5075420;28;20044;-66
2023/05/21 09:08:06;;;;;;;5.50;2.15;;;17.10;99.90;;;;;;5075402;28;20094;-66
2023/05/21 09:10:38;;;;;;;3.13;1.80;;;17.20;99.90;;;;;;5074926;28;20076;-66
2023/05/21 09:13:04;;;;;;;5.28;2.05;;;17.30;99.90;;;;;;5074275;28;20062;-66
2023/05/21 09:15:30;;;;;;;4.63;2.10;;;17.20;99.90;;;;;;5074966;28;20033;-68
2023/05/21 09:17:56;;;;;;;2.97;1.80;;;17.10;99.90;;;;;;5057035;28;20443;-69
2023/05/21 09:20:26;;;;;;;5.07;1.65;;;17.30;99.90;;;;;;5074807;28;20033;-67
2023/05/21 09:22:52;;;;;;;3.28;1.73;;;17.30;99.90;;;;;;5075144;28;20040;-67
2023/05/21 09:25:22;;;;;;;2.83;1.98;;;17.40;99.90;;;;;;5074944;28;20028;-67
2023/05/21 09:27:48;;;;;;;3.17;1.83;;;17.50;99.90;;;;;;5074948;28;20045;-67
2023/05/21 09:30:16;;;;;;;3.92;2.17;;;17.60;99.90;;;;;;5074611;28;20467;-67
2023/05/21 09:32:43;;;;;;;4.03;1.90;;;17.90;99.90;;;;;;5074661;28;20037;-67
2023/05/21 09:35:13;;;;;;;3.80;2.00;;;17.70;99.90;;;;;;5074712;28;20373;-67
2023/05/21 09:37:43;;;;;;;4.03;2.05;;;17.80;99.90;;;;;;5074719;28;20099;-67
2023/05/21 09:40:14;;;;;;;3.63;2.00;;;18.00;99.90;;;;;;5074771;28;20036;-67
2023/05/21 09:42:41;;;;;;;2.83;1.80;;;18.20;99.90;;;;;;5074674;28;20064;-67
2023/05/21 09:45:09;;;;;;;2.85;1.65;;;18.40;99.90;;;;;;5074342;28;20037;-67
2023/05/21 09:47:41;;;;;;;3.72;1.92;;;18.60;99.90;;;;;;5074673;28;20101;-70
2023/05/21 09:50:10;;;;;;;2.83;1.77;;;18.70;99.90;;;;;;5074446;28;20041;-66
2023/05/21 09:52:37;;;;;;;2.65;1.75;;;18.80;99.90;;;;;;5074362;28;20503;-66
2023/05/21 09:55:04;;;;;;;2.17;1.65;;;18.80;99.90;;;;;;5074118;28;20047;-67
2023/05/21 09:57:30;;;;;;;4.95;2.00;;;18.90;99.90;;;;;;5074387;28;20079;-66
2023/05/21 09:59:56;;;;;;;2.92;2.10;;;19.10;99.90;;;;;;5074144;28;20561;-67
2023/05/21 10:02:23;;;;;;;4.18;2.50;;;19.10;99.90;;;;;;5074354;28;20046;-69
2023/05/21 10:04:50;;;;;;;4.70;2.05;;;19.30;99.90;;;;;;5074143;28;20036;-65
2023/05/21 10:07:24;;;;;;;4.20;2.15;;;19.80;99.90;;;;;;5073984;28;20389;-67
2023/05/21 10:09:54;;;;;;;3.67;2.20;;;19.30;99.90;;;;;;5073830;28;20461;-66
2023/05/21 10:12:22;;;;;;;2.35;1.60;;;19.40;99.90;;;;;;5055982;28;20048;-66
2023/05/21 10:14:53;;;;;;;7.88;2.30;;;19.80;99.90;;;;;;5074002;28;20091;-66
2023/05/21 10:17:19;;;;;;;3.63;2.20;;;19.60;99.90;;;;;;5073784;28;20036;-67
2023/05/21 10:19:46;;;;;;;4.55;2.65;;;19.60;99.90;;;;;;5072274;28;20037;-67
2023/05/21 10:22:12;;;;;;;4.35;2.67;;;20.00;99.90;;;;;;5073331;28;20119;-69
2023/05/21 10:24:40;;;;;;;5.20;2.53;;;20.00;99.90;;;;;;5073621;28;20369;-67
2023/05/21 10:27:06;;;;;;;3.67;2.28;;;19.70;99.90;;;;;;5073524;28;20045;-67
2023/05/21 10:29:33;;;;;;;4.53;2.30;;;19.60;99.90;;;;;;5072110;28;20045;-68
2023/05/21 10:32:00;;;;;;;3.63;2.20;;;19.70;99.90;;;;;;5073589;28;20045;-68
2023/05/21 10:34:28;;;;;;;4.75;2.80;;;19.60;99.90;;;;;;5073574;28;20400;-68
2023/05/21 10:36:55;;;;;;;7.80;3.08;;;19.70;99.90;;;;;;5073507;28;20044;-68
2023/05/21 10:39:24;;;;;;;5.15;3.15;;;19.60;99.90;;;;;;5073474;28;20033;-68
2023/05/21 10:42:05;;;;;;;7.07;3.55;;;19.60;99.90;;;;;;5073559;28;20395;-67
2023/05/21 10:44:57;;;;;;;5.75;3.28;;;19.40;99.90;;;;;;5073459;28;20040;-67
2023/05/21 10:47:39;;;;;;;9.13;3.92;;;19.40;99.90;;;;;;5073439;28;20105;-67
2023/05/21 10:50:25;;;;;;;5.75;3.45;;;19.30;99.90;;;;;;5073119;28;20045;-67
2023/05/21 10:53:20;;;;;;;5.03;3.15;;;19.30;99.90;;;;;;5073272;28;20412;-68
2023/05/21 10:55:48;;;;;;;7.05;3.63;;;19.50;99.90;;;;;;5073207;28;20115;-74
2023/05/21 10:58:35;;;;;;;5.85;4.07;;;19.50;99.90;;;;;;5054889;28;20479;-67
2023/05/21 11:01:02;;;;;;;5.25;3.20;;;19.60;99.90;;;;;;5055185;28;20036;-69
2023/05/21 11:03:28;;;;;;;5.88;3.58;;;19.60;99.90;;;;;;5071782;28;20079;-69
2023/05/21 11:05:55;;;;;;;6.88;3.92;;;19.80;99.90;;;;;;5073078;28;20514;-70
2023/05/21 11:08:26;;;;;;;8.40;4.40;;;19.80;99.90;;;;;;5073001;28;20146;-69
2023/05/21 11:10:59;;;;;;;6.25;4.00;;;19.80;99.90;;;;;;5054891;28;20102;-69
2023/05/21 11:13:26;;;;;;;6.80;3.85;;;19.90;99.90;;;;;;5072777;28;20431;-69
2023/05/21 11:15:58;;;;;;;8.45;4.18;;;20.00;99.90;;;;;;5055040;28;20047;-70
2023/05/21 11:18:43;;;;;;;7.95;4.45;;;20.30;99.90;;;;;;5072822;28;20052;-70
2023/05/21 11:21:21;;;;;;;5.28;3.90;;;20.00;99.90;;;;;;5072537;28;20542;-70
2023/05/21 11:23:50;;;;;;;12.20;5.60;;;20.20;99.90;;;;;;5071262;28;20052;-69
2023/05/21 11:26:23;;;;;;;11.32;5.80;;;20.20;99.90;;;;;;5072833;28;20550;-69
2023/05/21 11:29:03;;;;;;;6.10;4.10;;;20.10;99.90;;;;;;5072770;28;20081;-69
2023/05/21 11:31:37;;;;;;;9.68;4.70;;;20.70;99.90;;;;;;5072709;28;20089;-67
2023/05/21 11:34:18;;;;;;;6.93;4.13;;;20.20;99.90;;;;;;5072739;28;20503;-67
2023/05/21 11:36:46;;;;;;;7.07;4.20;;;20.40;99.90;;;;;;5072259;28;20040;-67
2023/05/21 11:39:21;;;;;;;9.27;5.53;;;20.50;99.90;;;;;;5072756;28;20033;-67
2023/05/21 11:42:01;;;;;;;9.02;5.32;;;20.60;99.90;;;;;;5072531;28;20480;-68
2023/05/21 11:44:40;;;;;;;11.00;5.55;;;20.60;99.90;;;;;;5072800;28;20044;-67
2023/05/21 11:47:08;;;;;;;10.32;5.53;;;20.60;99.90;;;;;;5054694;28;20071;-67
2023/05/21 11:49:34;;;;;;;7.97;4.82;;;20.70;99.90;;;;;;5072677;28;20127;-67
2023/05/21 11:52:01;;;;;;;10.27;5.75;;;20.50;99.90;;;;;;5072636;28;20040;-67
2023/05/21 11:54:35;;;;;;;10.70;5.80;;;20.40;99.90;;;;;;5072425;28;20047;-67
2023/05/21 11:57:06;;;;;;;8.65;5.75;;;20.20;99.90;;;;;;5072245;28;20131;-67
2023/05/21 11:59:32;;;;;;;11.18;4.57;;;20.00;99.90;;;;;;5072394;28;20048;-69
2023/05/21 12:01:58;;;;;;;13.60;6.55;;;20.40;99.90;;;;;;5072389;28;20037;-69
2023/05/21 12:04:28;;;;;;;11.30;6.63;;;20.20;99.90;;;;;;5054202;28;20545;-69
2023/05/21 12:06:54;;;;;;;14.20;5.93;;;20.30;99.90;;;;;;5054022;28;20056;-69
2023/05/21 12:09:20;;;;;;;12.35;5.95;;;20.30;99.90;;;;;;5054394;28;20051;-69
2023/05/21 12:11:45;;;;;;;10.95;5.53;;;20.40;99.90;;;;;;5071876;28;20051;-66
2023/05/21 12:14:12;;;;;;;9.80;6.35;;;20.50;99.90;;;;;;5072117;28;20041;-66
2023/05/21 12:16:38;;;;;;;9.27;5.10;;;20.40;99.90;;;;;;5071889;28;20452;-66
2023/05/21 12:19:05;;;;;;;7.63;5.35;;;20.50;99.90;;;;;;5071943;28;20076;-66
2023/05/21 12:21:31;;;;;;;9.57;5.78;;;20.70;99.90;;;;;;5071890;28;20032;-66
2023/05/21 12:23:57;;;;;;;14.23;6.50;;;20.80;99.90;;;;;;5072394;28;20092;-66
2023/05/21 12:26:26;;;;;;;11.23;6.05;;;21.00;99.90;;;;;;5071872;28;20036;-66
2023/05/21 12:28:55;;;;;;;10.77;6.13;;;20.60;99.90;;;;;;5072239;28;20082;-67
2023/05/21 12:31:22;;;;;;;9.55;5.72;;;20.50;99.90;;;;;;5072034;28;20048;-66
2023/05/21 12:33:49;;;;;;;9.00;5.40;;;20.50;99.90;;;;;;5071615;28;20040;-65
2023/05/21 12:36:30;;;;;;;11.00;5.88;;;20.70;99.90;;;;;;5070837;28;20500;-68
2023/05/21 12:38:57;;;;;;;10.50;6.15;;;20.70;99.90;;;;;;5053850;28;20442;-66
2023/05/21 12:41:22;;;;;;;10.40;6.32;;;20.70;99.90;;;;;;5053882;28;20064;-71
2023/05/21 12:43:49;;;;;;;8.57;5.15;;;21.40;99.90;;;;;;5072046;28;20036;-67
2023/05/21 12:46:17;;;;;;;11.27;6.43;;;20.80;99.90;;;;;;5071734;28;20074;-67
2023/05/21 12:48:53;;;;;;;12.57;6.50;;;20.90;99.90;;;;;;5072778;28;20051;-66